sensor_id;sensor_type;location;lat;lon;timestamp;P1;durP1;ratioP1;P2;durP2;ratioP2
78732;SDS011;68056;52.530;5.454;2023-03-20T00:00:52;3.60;;;2.00;;
78732;SDS011;68056;52.530;5.454;2023-03-20T00:03:18;8.68;;;2.10;;
78732;SDS011;68056;52.530;5.454;2023-03-20T00:05:43;6.57;;;2.05;;
78732;SDS011;68056;52.530;5.454;2023-03-20T00:08:09;5.22;;;2.58;;
78732;SDS011;68056;52.530;5.454;2023-03-20T00:10:35;5.53;;;1.90;;
78732;SDS011;68056;52.530;5.454;2023-03-20T00:13:04;4.32;;;1.92;;
78732;SDS011;68056;52.530;5.454;2023-03-20T00:15:35;4.68;;;1.75;;
78732;SDS011;68056;52.530;5.454;2023-03-20T00:18:02;5.70;;;2.10;;
78732;SDS011;68056;52.530;5.454;2023-03-20T00:20:31;8.35;;;2.03;;
78732;SDS011;68056;52.530;5.454;2023-03-20T00:22:56;6.32;;;1.98;;
78732;SDS011;68056;52.530;5.454;2023-03-20T00:25:23;5.70;;;1.98;;
78732;SDS011;68056;52.530;5.454;2023-03-20T00:27:49;6.50;;;2.30;;
78732;SDS011;68056;52.530;5.454;2023-03-20T00:30:34;8.18;;;2.78;;
78732;SDS011;68056;52.530;5.454;2023-03-20T00:32:59;7.00;;;2.38;;
78732;SDS011;68056;52.530;5.454;2023-03-20T00:35:26;6.28;;;2.40;;
78732;SDS011;68056;52.530;5.454;2023-03-20T00:37:53;6.28;;;2.97;;
78732;SDS011;68056;52.530;5.454;2023-03-20T00:40:20;5.88;;;1.90;;
78732;SDS011;68056;52.530;5.454;2023-03-20T00:42:49;6.07;;;2.60;;
78732;SDS011;68056;52.530;5.454;2023-03-20T00:45:21;6.60;;;1.92;;
78732;SDS011;68056;52.530;5.454;2023-03-20T00:47:48;6.65;;;2.35;;
78732;SDS011;68056;52.530;5.454;2023-03-20T00:50:19;5.88;;;2.47;;
78732;SDS011;68056;52.530;5.454;2023-03-20T00:52:47;4.78;;;2.35;;
78732;SDS011;68056;52.530;5.454;2023-03-20T00:55:16;5.53;;;1.92;;
78732;SDS011;68056;52.530;5.454;2023-03-20T00:57:50;5.30;;;2.38;;
78732;SDS011;68056;52.530;5.454;2023-03-20T01:02:53;3.80;;;1.88;;
78732;SDS011;68056;52.530;5.454;2023-03-20T01:05:20;6.43;;;2.38;;
78732;SDS011;68056;52.530;5.454;2023-03-20T01:07:46;5.95;;;2.10;;
78732;SDS011;68056;52.530;5.454;2023-03-20T01:10:13;5.75;;;2.25;;
78732;SDS011;68056;52.530;5.454;2023-03-20T01:12:39;5.78;;;1.77;;
78732;SDS011;68056;52.530;5.454;2023-03-20T01:15:22;6.50;;;2.50;;
78732;SDS011;68056;52.530;5.454;2023-03-20T01:17:49;4.22;;;2.08;;
78732;SDS011;68056;52.530;5.454;2023-03-20T01:20:18;5.40;;;1.67;;
78732;SDS011;68056;52.530;5.454;2023-03-20T01:22:46;4.82;;;2.10;;
78732;SDS011;68056;52.530;5.454;2023-03-20T01:25:12;3.78;;;1.73;;
78732;SDS011;68056;52.530;5.454;2023-03-20T01:27:38;3.58;;;1.65;;
78732;SDS011;68056;52.530;5.454;2023-03-20T01:30:15;3.67;;;1.80;;
78732;SDS011;68056;52.530;5.454;2023-03-20T01:32:45;2.40;;;1.58;;
78732;SDS011;68056;52.530;5.454;2023-03-20T01:35:12;2.67;;;1.95;;
78732;SDS011;68056;52.530;5.454;2023-03-20T01:37:43;3.78;;;1.83;;
78732;SDS011;68056;52.530;5.454;2023-03-20T01:40:30;5.75;;;2.30;;
78732;SDS011;68056;52.530;5.454;2023-03-20T01:43:00;4.53;;;1.90;;
78732;SDS011;68056;52.530;5.454;2023-03-20T01:45:31;5.05;;;1.50;;
78732;SDS011;68056;52.530;5.454;2023-03-20T01:48:00;5.22;;;1.95;;
78732;SDS011;68056;52.530;5.454;2023-03-20T01:50:36;5.32;;;2.00;;
78732;SDS011;68056;52.530;5.454;2023-03-20T01:53:07;6.97;;;1.98;;
78732;SDS011;68056;52.530;5.454;2023-03-20T01:55:34;6.10;;;2.25;;
78732;SDS011;68056;52.530;5.454;2023-03-20T01:58:02;6.10;;;2.30;;
78732;SDS011;68056;52.530;5.454;2023-03-20T02:00:34;2.80;;;1.92;;
78732;SDS011;68056;52.530;5.454;2023-03-20T02:03:00;5.38;;;2.00;;
78732;SDS011;68056;52.530;5.454;2023-03-20T02:05:28;5.18;;;1.88;;
78732;SDS011;68056;52.530;5.454;2023-03-20T02:07:58;5.28;;;2.25;;
78732;SDS011;68056;52.530;5.454;2023-03-20T02:10:39;4.95;;;2.28;;
78732;SDS011;68056;52.530;5.454;2023-03-20T02:13:06;5.60;;;2.75;;
78732;SDS011;68056;52.530;5.454;2023-03-20T02:15:34;6.53;;;2.47;;
78732;SDS011;68056;52.530;5.454;2023-03-20T02:18:00;5.82;;;2.45;;
78732;SDS011;68056;52.530;5.454;2023-03-20T02:31:50;5.85;;;3.10;;
78732;SDS011;68056;52.530;5.454;2023-03-20T02:34:47;3.70;;;2.55;;
78732;SDS011;68056;52.530;5.454;2023-03-20T02:45:30;7.72;;;3.92;;
78732;SDS011;68056;52.530;5.454;2023-03-20T02:48:19;7.60;;;4.50;;
78732;SDS011;68056;52.530;5.454;2023-03-20T02:50:50;9.43;;;4.20;;
78732;SDS011;68056;52.530;5.454;2023-03-20T02:56:45;8.30;;;3.60;;
78732;SDS011;68056;52.530;5.454;2023-03-20T02:59:20;7.38;;;4.00;;
78732;SDS011;68056;52.530;5.454;2023-03-20T03:02:09;8.15;;;3.53;;
78732;SDS011;68056;52.530;5.454;2023-03-20T03:04:43;9.85;;;4.85;;
78732;SDS011;68056;52.530;5.454;2023-03-20T03:07:15;8.23;;;3.58;;
78732;SDS011;68056;52.530;5.454;2023-03-20T03:09:48;8.48;;;3.88;;
78732;SDS011;68056;52.530;5.454;2023-03-20T03:12:18;7.18;;;3.70;;
78732;SDS011;68056;52.530;5.454;2023-03-20T03:14:48;7.90;;;3.75;;
78732;SDS011;68056;52.530;5.454;2023-03-20T03:17:25;8.00;;;3.80;;
78732;SDS011;68056;52.530;5.454;2023-03-20T03:19:55;7.00;;;3.67;;
78732;SDS011;68056;52.530;5.454;2023-03-20T03:22:25;7.57;;;3.40;;
78732;SDS011;68056;52.530;5.454;2023-03-20T03:24:51;7.32;;;3.55;;
78732;SDS011;68056;52.530;5.454;2023-03-20T03:27:20;7.15;;;3.70;;
78732;SDS011;68056;52.530;5.454;2023-03-20T03:29:55;5.85;;;2.95;;
78732;SDS011;68056;52.530;5.454;2023-03-20T03:32:34;8.82;;;3.53;;
78732;SDS011;68056;52.530;5.454;2023-03-20T03:35:04;5.45;;;2.92;;
78732;SDS011;68056;52.530;5.454;2023-03-20T03:40:15;6.72;;;3.53;;
78732;SDS011;68056;52.530;5.454;2023-03-20T03:45:23;6.38;;;2.88;;
78732;SDS011;68056;52.530;5.454;2023-03-20T03:48:15;6.88;;;3.10;;
78732;SDS011;68056;52.530;5.454;2023-03-20T03:50:50;4.47;;;2.95;;
78732;SDS011;68056;52.530;5.454;2023-03-20T03:53:24;8.77;;;3.50;;
78732;SDS011;68056;52.530;5.454;2023-03-20T03:55:57;8.13;;;2.88;;
78732;SDS011;68056;52.530;5.454;2023-03-20T03:58:28;7.25;;;3.08;;
78732;SDS011;68056;52.530;5.454;2023-03-20T04:03:22;9.90;;;4.00;;
78732;SDS011;68056;52.530;5.454;2023-03-20T04:05:53;7.40;;;3.60;;
78732;SDS011;68056;52.530;5.454;2023-03-20T04:08:22;6.78;;;3.80;;
78732;SDS011;68056;52.530;5.454;2023-03-20T04:10:47;8.02;;;3.58;;
78732;SDS011;68056;52.530;5.454;2023-03-20T04:13:13;7.43;;;3.90;;
78732;SDS011;68056;52.530;5.454;2023-03-20T04:15:40;8.30;;;3.58;;
78732;SDS011;68056;52.530;5.454;2023-03-20T04:18:06;5.88;;;3.80;;
78732;SDS011;68056;52.530;5.454;2023-03-20T04:20:33;6.10;;;3.38;;
78732;SDS011;68056;52.530;5.454;2023-03-20T04:22:59;10.23;;;4.57;;
78732;SDS011;68056;52.530;5.454;2023-03-20T04:25:25;8.38;;;4.20;;
78732;SDS011;68056;52.530;5.454;2023-03-20T04:27:51;6.25;;;3.72;;
78732;SDS011;68056;52.530;5.454;2023-03-20T04:30:17;8.85;;;3.83;;
78732;SDS011;68056;52.530;5.454;2023-03-20T04:32:43;7.60;;;3.88;;
78732;SDS011;68056;52.530;5.454;2023-03-20T04:35:09;7.22;;;4.05;;
78732;SDS011;68056;52.530;5.454;2023-03-20T04:37:34;9.75;;;4.25;;
78732;SDS011;68056;52.530;5.454;2023-03-20T04:40:00;8.95;;;4.70;;
78732;SDS011;68056;52.530;5.454;2023-03-20T04:42:26;11.25;;;4.82;;
78732;SDS011;68056;52.530;5.454;2023-03-20T04:44:51;12.70;;;5.07;;
78732;SDS011;68056;52.530;5.454;2023-03-20T04:47:17;11.20;;;5.15;;
78732;SDS011;68056;52.530;5.454;2023-03-20T04:49:43;11.85;;;5.80;;
78732;SDS011;68056;52.530;5.454;2023-03-20T04:52:08;8.73;;;4.80;;
78732;SDS011;68056;52.530;5.454;2023-03-20T04:54:34;13.00;;;5.72;;
78732;SDS011;68056;52.530;5.454;2023-03-20T04:57:00;8.32;;;4.70;;
78732;SDS011;68056;52.530;5.454;2023-03-20T04:59:25;12.07;;;5.30;;
78732;SDS011;68056;52.530;5.454;2023-03-20T05:01:51;10.23;;;4.93;;
78732;SDS011;68056;52.530;5.454;2023-03-20T05:04:16;12.75;;;5.35;;
78732;SDS011;68056;52.530;5.454;2023-03-20T05:06:42;14.30;;;6.35;;
78732;SDS011;68056;52.530;5.454;2023-03-20T05:09:08;11.18;;;5.38;;
78732;SDS011;68056;52.530;5.454;2023-03-20T05:11:34;12.85;;;5.43;;
78732;SDS011;68056;52.530;5.454;2023-03-20T05:14:00;12.82;;;4.97;;
78732;SDS011;68056;52.530;5.454;2023-03-20T05:16:26;11.68;;;6.10;;
78732;SDS011;68056;52.530;5.454;2023-03-20T05:18:51;11.05;;;6.25;;
78732;SDS011;68056;52.530;5.454;2023-03-20T05:21:17;9.85;;;5.03;;
78732;SDS011;68056;52.530;5.454;2023-03-20T05:23:42;13.32;;;6.45;;
78732;SDS011;68056;52.530;5.454;2023-03-20T05:26:08;10.48;;;5.88;;
78732;SDS011;68056;52.530;5.454;2023-03-20T05:28:34;12.07;;;5.95;;
78732;SDS011;68056;52.530;5.454;2023-03-20T05:30:59;10.63;;;5.45;;
78732;SDS011;68056;52.530;5.454;2023-03-20T05:33:25;10.90;;;4.53;;
78732;SDS011;68056;52.530;5.454;2023-03-20T05:35:50;9.57;;;5.40;;
78732;SDS011;68056;52.530;5.454;2023-03-20T05:38:16;14.65;;;6.63;;
78732;SDS011;68056;52.530;5.454;2023-03-20T05:40:41;11.60;;;6.03;;
78732;SDS011;68056;52.530;5.454;2023-03-20T05:43:07;11.65;;;5.57;;
78732;SDS011;68056;52.530;5.454;2023-03-20T05:45:32;13.10;;;6.63;;
78732;SDS011;68056;52.530;5.454;2023-03-20T05:47:58;11.40;;;6.50;;
78732;SDS011;68056;52.530;5.454;2023-03-20T05:50:24;11.65;;;6.70;;
78732;SDS011;68056;52.530;5.454;2023-03-20T05:52:49;9.15;;;5.07;;
78732;SDS011;68056;52.530;5.454;2023-03-20T05:55:15;9.55;;;4.55;;
78732;SDS011;68056;52.530;5.454;2023-03-20T05:57:41;10.40;;;5.40;;
78732;SDS011;68056;52.530;5.454;2023-03-20T06:00:08;12.80;;;6.43;;
78732;SDS011;68056;52.530;5.454;2023-03-20T06:02:37;10.55;;;5.70;;
78732;SDS011;68056;52.530;5.454;2023-03-20T06:05:03;13.20;;;6.45;;
78732;SDS011;68056;52.530;5.454;2023-03-20T06:07:28;10.63;;;6.28;;
78732;SDS011;68056;52.530;5.454;2023-03-20T06:09:54;11.57;;;5.93;;
78732;SDS011;68056;52.530;5.454;2023-03-20T06:12:20;11.55;;;5.90;;
78732;SDS011;68056;52.530;5.454;2023-03-20T06:14:46;12.02;;;6.00;;
78732;SDS011;68056;52.530;5.454;2023-03-20T06:17:12;11.32;;;5.22;;
78732;SDS011;68056;52.530;5.454;2023-03-20T06:19:38;13.23;;;6.13;;
78732;SDS011;68056;52.530;5.454;2023-03-20T06:22:03;8.73;;;5.28;;
78732;SDS011;68056;52.530;5.454;2023-03-20T06:24:29;13.02;;;5.85;;
78732;SDS011;68056;52.530;5.454;2023-03-20T06:26:55;12.38;;;5.82;;
78732;SDS011;68056;52.530;5.454;2023-03-20T06:29:20;12.07;;;5.45;;
78732;SDS011;68056;52.530;5.454;2023-03-20T06:31:46;13.40;;;6.93;;
78732;SDS011;68056;52.530;5.454;2023-03-20T06:34:12;10.70;;;6.22;;
78732;SDS011;68056;52.530;5.454;2023-03-20T06:36:38;14.30;;;6.63;;
78732;SDS011;68056;52.530;5.454;2023-03-20T06:39:03;11.40;;;6.22;;
78732;SDS011;68056;52.530;5.454;2023-03-20T06:41:29;14.77;;;7.38;;
78732;SDS011;68056;52.530;5.454;2023-03-20T06:43:55;9.57;;;4.75;;
78732;SDS011;68056;52.530;5.454;2023-03-20T06:46:20;11.70;;;6.35;;
78732;SDS011;68056;52.530;5.454;2023-03-20T06:48:46;14.43;;;6.72;;
78732;SDS011;68056;52.530;5.454;2023-03-20T06:51:12;11.40;;;5.38;;
78732;SDS011;68056;52.530;5.454;2023-03-20T06:53:38;10.35;;;5.55;;
78732;SDS011;68056;52.530;5.454;2023-03-20T06:56:05;10.05;;;5.63;;
78732;SDS011;68056;52.530;5.454;2023-03-20T06:58:32;10.00;;;5.95;;
78732;SDS011;68056;52.530;5.454;2023-03-20T07:00:58;9.50;;;5.22;;
78732;SDS011;68056;52.530;5.454;2023-03-20T07:03:24;10.75;;;6.18;;
78732;SDS011;68056;52.530;5.454;2023-03-20T07:05:49;11.80;;;5.82;;
78732;SDS011;68056;52.530;5.454;2023-03-20T07:08:15;10.32;;;5.95;;
78732;SDS011;68056;52.530;5.454;2023-03-20T07:10:41;9.18;;;5.05;;
78732;SDS011;68056;52.530;5.454;2023-03-20T07:13:06;11.63;;;5.25;;
78732;SDS011;68056;52.530;5.454;2023-03-20T07:15:33;9.63;;;5.30;;
78732;SDS011;68056;52.530;5.454;2023-03-20T07:17:58;11.20;;;5.47;;
78732;SDS011;68056;52.530;5.454;2023-03-20T07:20:24;11.95;;;5.30;;
78732;SDS011;68056;52.530;5.454;2023-03-20T07:22:49;8.18;;;4.88;;
78732;SDS011;68056;52.530;5.454;2023-03-20T07:25:15;8.55;;;5.22;;
78732;SDS011;68056;52.530;5.454;2023-03-20T07:27:41;9.60;;;5.40;;
78732;SDS011;68056;52.530;5.454;2023-03-20T07:30:10;10.95;;;5.85;;
78732;SDS011;68056;52.530;5.454;2023-03-20T07:32:38;8.80;;;4.85;;
78732;SDS011;68056;52.530;5.454;2023-03-20T07:35:03;10.70;;;6.22;;
78732;SDS011;68056;52.530;5.454;2023-03-20T07:37:29;8.35;;;5.15;;
78732;SDS011;68056;52.530;5.454;2023-03-20T07:39:55;9.48;;;6.53;;
78732;SDS011;68056;52.530;5.454;2023-03-20T07:42:20;10.98;;;5.55;;
78732;SDS011;68056;52.530;5.454;2023-03-20T07:44:46;10.25;;;6.60;;
78732;SDS011;68056;52.530;5.454;2023-03-20T07:47:12;8.93;;;4.45;;
78732;SDS011;68056;52.530;5.454;2023-03-20T07:49:37;14.10;;;7.07;;
78732;SDS011;68056;52.530;5.454;2023-03-20T07:52:03;11.60;;;6.38;;
78732;SDS011;68056;52.530;5.454;2023-03-20T07:54:28;12.10;;;6.70;;
78732;SDS011;68056;52.530;5.454;2023-03-20T07:56:54;13.45;;;6.50;;
78732;SDS011;68056;52.530;5.454;2023-03-20T07:59:20;11.82;;;6.72;;
78732;SDS011;68056;52.530;5.454;2023-03-20T08:01:45;9.70;;;6.15;;
78732;SDS011;68056;52.530;5.454;2023-03-20T08:04:11;12.32;;;6.53;;
78732;SDS011;68056;52.530;5.454;2023-03-20T08:06:37;10.10;;;5.63;;
78732;SDS011;68056;52.530;5.454;2023-03-20T08:09:05;10.57;;;5.97;;
78732;SDS011;68056;52.530;5.454;2023-03-20T08:11:31;14.40;;;6.35;;
78732;SDS011;68056;52.530;5.454;2023-03-20T08:13:57;13.00;;;6.30;;
78732;SDS011;68056;52.530;5.454;2023-03-20T08:16:25;13.00;;;6.47;;
78732;SDS011;68056;52.530;5.454;2023-03-20T08:18:51;11.40;;;5.07;;
78732;SDS011;68056;52.530;5.454;2023-03-20T08:21:17;12.60;;;4.97;;
78732;SDS011;68056;52.530;5.454;2023-03-20T08:23:43;11.48;;;4.60;;
78732;SDS011;68056;52.530;5.454;2023-03-20T08:26:09;8.00;;;4.00;;
78732;SDS011;68056;52.530;5.454;2023-03-20T08:28:35;11.23;;;5.57;;
78732;SDS011;68056;52.530;5.454;2023-03-20T08:31:01;10.35;;;4.85;;
78732;SDS011;68056;52.530;5.454;2023-03-20T08:33:27;10.10;;;5.25;;
78732;SDS011;68056;52.530;5.454;2023-03-20T08:35:54;9.02;;;4.70;;
78732;SDS011;68056;52.530;5.454;2023-03-20T08:38:21;6.57;;;4.38;;
78732;SDS011;68056;52.530;5.454;2023-03-20T08:40:46;9.35;;;4.32;;
78732;SDS011;68056;52.530;5.454;2023-03-20T08:43:12;9.10;;;5.70;;
78732;SDS011;68056;52.530;5.454;2023-03-20T08:45:38;9.38;;;4.03;;
78732;SDS011;68056;52.530;5.454;2023-03-20T08:48:03;7.78;;;3.92;;
78732;SDS011;68056;52.530;5.454;2023-03-20T08:50:29;14.75;;;4.43;;
78732;SDS011;68056;52.530;5.454;2023-03-20T08:52:55;13.75;;;4.75;;
78732;SDS011;68056;52.530;5.454;2023-03-20T08:55:21;10.70;;;5.15;;
78732;SDS011;68056;52.530;5.454;2023-03-20T08:57:46;12.32;;;4.68;;
78732;SDS011;68056;52.530;5.454;2023-03-20T09:00:13;7.70;;;4.55;;
78732;SDS011;68056;52.530;5.454;2023-03-20T09:02:39;6.78;;;3.85;;
78732;SDS011;68056;52.530;5.454;2023-03-20T09:05:06;8.43;;;4.30;;
78732;SDS011;68056;52.530;5.454;2023-03-20T09:07:32;8.95;;;4.43;;
78732;SDS011;68056;52.530;5.454;2023-03-20T09:09:58;12.20;;;4.45;;
78732;SDS011;68056;52.530;5.454;2023-03-20T09:12:24;9.45;;;4.95;;
78732;SDS011;68056;52.530;5.454;2023-03-20T09:14:50;6.75;;;3.60;;
78732;SDS011;68056;52.530;5.454;2023-03-20T09:17:16;4.75;;;3.08;;
78732;SDS011;68056;52.530;5.454;2023-03-20T09:19:41;7.72;;;3.70;;
78732;SDS011;68056;52.530;5.454;2023-03-20T09:22:10;8.18;;;4.57;;
78732;SDS011;68056;52.530;5.454;2023-03-20T09:24:37;7.60;;;4.35;;
78732;SDS011;68056;52.530;5.454;2023-03-20T09:27:03;6.85;;;3.88;;
78732;SDS011;68056;52.530;5.454;2023-03-20T09:29:29;9.45;;;4.10;;
78732;SDS011;68056;52.530;5.454;2023-03-20T09:31:55;7.65;;;3.83;;
78732;SDS011;68056;52.530;5.454;2023-03-20T09:34:20;5.57;;;2.80;;
78732;SDS011;68056;52.530;5.454;2023-03-20T09:36:46;10.13;;;3.58;;
78732;SDS011;68056;52.530;5.454;2023-03-20T09:39:12;6.30;;;3.45;;
78732;SDS011;68056;52.530;5.454;2023-03-20T09:41:37;9.80;;;3.40;;
78732;SDS011;68056;52.530;5.454;2023-03-20T09:49:58;6.40;;;3.55;;
78732;SDS011;68056;52.530;5.454;2023-03-20T09:52:37;5.10;;;3.13;;
78732;SDS011;68056;52.530;5.454;2023-03-20T09:55:15;6.15;;;2.97;;
78732;SDS011;68056;52.530;5.454;2023-03-20T09:57:49;11.82;;;3.45;;
78732;SDS011;68056;52.530;5.454;2023-03-20T10:00:24;10.40;;;3.45;;
78732;SDS011;68056;52.530;5.454;2023-03-20T10:02:53;7.18;;;2.88;;
78732;SDS011;68056;52.530;5.454;2023-03-20T10:08:12;7.28;;;3.58;;
78732;SDS011;68056;52.530;5.454;2023-03-20T10:13:36;7.15;;;3.13;;
78732;SDS011;68056;52.530;5.454;2023-03-20T10:21:44;7.97;;;3.05;;
78732;SDS011;68056;52.530;5.454;2023-03-20T10:27:22;7.63;;;3.10;;
78732;SDS011;68056;52.530;5.454;2023-03-20T10:35:33;5.45;;;3.33;;
78732;SDS011;68056;52.530;5.454;2023-03-20T10:38:20;5.18;;;2.80;;
78732;SDS011;68056;52.530;5.454;2023-03-20T10:41:12;6.80;;;3.10;;
78732;SDS011;68056;52.530;5.454;2023-03-20T10:43:42;6.68;;;3.33;;
78732;SDS011;68056;52.530;5.454;2023-03-20T10:46:12;7.53;;;3.05;;
78732;SDS011;68056;52.530;5.454;2023-03-20T10:49:04;7.80;;;3.33;;
78732;SDS011;68056;52.530;5.454;2023-03-20T10:51:41;6.95;;;3.50;;
78732;SDS011;68056;52.530;5.454;2023-03-20T10:54:23;5.32;;;2.70;;
78732;SDS011;68056;52.530;5.454;2023-03-20T10:56:55;9.98;;;3.22;;
78732;SDS011;68056;52.530;5.454;2023-03-20T10:59:36;6.20;;;3.45;;
78732;SDS011;68056;52.530;5.454;2023-03-20T11:02:14;8.77;;;3.85;;
78732;SDS011;68056;52.530;5.454;2023-03-20T11:04:42;7.18;;;4.15;;
78732;SDS011;68056;52.530;5.454;2023-03-20T11:09:36;5.25;;;3.53;;
78732;SDS011;68056;52.530;5.454;2023-03-20T11:12:02;7.45;;;3.70;;
78732;SDS011;68056;52.530;5.454;2023-03-20T11:14:32;7.85;;;3.83;;
78732;SDS011;68056;52.530;5.454;2023-03-20T11:17:02;7.65;;;3.85;;
78732;SDS011;68056;52.530;5.454;2023-03-20T11:19:31;6.72;;;3.88;;
78732;SDS011;68056;52.530;5.454;2023-03-20T11:22:06;9.43;;;4.53;;
78732;SDS011;68056;52.530;5.454;2023-03-20T11:24:59;8.30;;;4.68;;
78732;SDS011;68056;52.530;5.454;2023-03-20T11:27:27;9.43;;;4.97;;
78732;SDS011;68056;52.530;5.454;2023-03-20T11:29:59;8.30;;;4.90;;
78732;SDS011;68056;52.530;5.454;2023-03-20T11:34:57;10.80;;;5.82;;
78732;SDS011;68056;52.530;5.454;2023-03-20T11:37:45;11.57;;;5.38;;
78732;SDS011;68056;52.530;5.454;2023-03-20T11:40:14;9.77;;;5.30;;
78732;SDS011;68056;52.530;5.454;2023-03-20T11:42:51;10.05;;;5.47;;
78732;SDS011;68056;52.530;5.454;2023-03-20T11:45:20;8.73;;;5.35;;
78732;SDS011;68056;52.530;5.454;2023-03-20T11:47:53;11.20;;;5.32;;
78732;SDS011;68056;52.530;5.454;2023-03-20T11:52:50;11.05;;;5.53;;
78732;SDS011;68056;52.530;5.454;2023-03-20T11:55:30;9.40;;;6.13;;
78732;SDS011;68056;52.530;5.454;2023-03-20T11:57:58;15.88;;;7.05;;
78732;SDS011;68056;52.530;5.454;2023-03-20T12:00:38;11.07;;;5.88;;
78732;SDS011;68056;52.530;5.454;2023-03-20T12:06:07;10.32;;;6.10;;
78732;SDS011;68056;52.530;5.454;2023-03-20T12:08:38;10.75;;;6.97;;
78732;SDS011;68056;52.530;5.454;2023-03-20T12:11:07;12.50;;;7.75;;
78732;SDS011;68056;52.530;5.454;2023-03-20T12:14:03;11.95;;;7.38;;
78732;SDS011;68056;52.530;5.454;2023-03-20T12:16:32;8.82;;;5.47;;
78732;SDS011;68056;52.530;5.454;2023-03-20T12:19:00;13.27;;;6.70;;
78732;SDS011;68056;52.530;5.454;2023-03-20T12:21:54;12.35;;;6.78;;
78732;SDS011;68056;52.530;5.454;2023-03-20T12:27:29;10.68;;;6.85;;
78732;SDS011;68056;52.530;5.454;2023-03-20T12:30:03;8.63;;;6.05;;
78732;SDS011;68056;52.530;5.454;2023-03-20T12:32:37;15.60;;;8.43;;
78732;SDS011;68056;52.530;5.454;2023-03-20T12:35:50;10.57;;;7.07;;
78732;SDS011;68056;52.530;5.454;2023-03-20T12:37:52;12.88;;;7.68;;
78732;SDS011;68056;52.530;5.454;2023-03-20T12:40:17;12.88;;;7.40;;
78732;SDS011;68056;52.530;5.454;2023-03-20T12:43:10;13.55;;;7.95;;
78732;SDS011;68056;52.530;5.454;2023-03-20T12:46:22;10.70;;;6.85;;
78732;SDS011;68056;52.530;5.454;2023-03-20T12:49:18;10.60;;;7.75;;
78732;SDS011;68056;52.530;5.454;2023-03-20T12:55:03;8.75;;;5.72;;
78732;SDS011;68056;52.530;5.454;2023-03-20T13:01:04;13.52;;;8.27;;
78732;SDS011;68056;52.530;5.454;2023-03-20T13:09:22;9.75;;;6.22;;
78732;SDS011;68056;52.530;5.454;2023-03-20T13:12:06;9.02;;;6.47;;
78732;SDS011;68056;52.530;5.454;2023-03-20T13:15:06;7.15;;;5.43;;
78732;SDS011;68056;52.530;5.454;2023-03-20T13:21:33;12.95;;;7.05;;
78732;SDS011;68056;52.530;5.454;2023-03-20T13:27:10;11.40;;;6.88;;
78732;SDS011;68056;52.530;5.454;2023-03-20T13:37:52;12.15;;;7.38;;
78732;SDS011;68056;52.530;5.454;2023-03-20T13:47:54;11.10;;;7.20;;
78732;SDS011;68056;52.530;5.454;2023-03-20T13:50:27;14.65;;;8.63;;
78732;SDS011;68056;52.530;5.454;2023-03-20T13:53:03;13.50;;;8.70;;
78732;SDS011;68056;52.530;5.454;2023-03-20T14:04:12;10.85;;;6.93;;
78732;SDS011;68056;52.530;5.454;2023-03-20T14:06:48;11.43;;;6.63;;
78732;SDS011;68056;52.530;5.454;2023-03-20T14:09:26;13.85;;;7.80;;
78732;SDS011;68056;52.530;5.454;2023-03-20T14:11:55;13.95;;;8.43;;
78732;SDS011;68056;52.530;5.454;2023-03-20T14:14:25;11.38;;;7.95;;
78732;SDS011;68056;52.530;5.454;2023-03-20T14:17:27;11.45;;;7.85;;
78732;SDS011;68056;52.530;5.454;2023-03-20T14:19:48;10.10;;;6.68;;
78732;SDS011;68056;52.530;5.454;2023-03-20T14:22:37;10.35;;;7.72;;
78732;SDS011;68056;52.530;5.454;2023-03-20T14:25:04;10.48;;;6.85;;
78732;SDS011;68056;52.530;5.454;2023-03-20T14:27:35;9.70;;;6.70;;
78732;SDS011;68056;52.530;5.454;2023-03-20T14:32:59;9.75;;;7.05;;
78732;SDS011;68056;52.530;5.454;2023-03-20T14:35:44;11.65;;;7.75;;
78732;SDS011;68056;52.530;5.454;2023-03-20T14:41:01;10.40;;;6.68;;
78732;SDS011;68056;52.530;5.454;2023-03-20T14:46:49;10.25;;;6.80;;
78732;SDS011;68056;52.530;5.454;2023-03-20T14:52:21;9.60;;;6.18;;
78732;SDS011;68056;52.530;5.454;2023-03-20T14:54:53;11.07;;;7.68;;
78732;SDS011;68056;52.530;5.454;2023-03-20T14:57:30;6.82;;;5.25;;
78732;SDS011;68056;52.530;5.454;2023-03-20T14:59:58;8.77;;;6.13;;
78732;SDS011;68056;52.530;5.454;2023-03-20T15:02:27;9.55;;;6.45;;
78732;SDS011;68056;52.530;5.454;2023-03-20T15:04:58;9.55;;;6.03;;
78732;SDS011;68056;52.530;5.454;2023-03-20T15:07:25;8.88;;;6.05;;
78732;SDS011;68056;52.530;5.454;2023-03-20T15:09:59;9.18;;;5.53;;
78732;SDS011;68056;52.530;5.454;2023-03-20T15:12:28;7.65;;;5.55;;
78732;SDS011;68056;52.530;5.454;2023-03-20T15:14:59;9.35;;;5.97;;
78732;SDS011;68056;52.530;5.454;2023-03-20T15:17:39;8.50;;;6.25;;
78732;SDS011;68056;52.530;5.454;2023-03-20T15:20:16;7.65;;;5.68;;
78732;SDS011;68056;52.530;5.454;2023-03-20T15:22:56;6.93;;;5.53;;
78732;SDS011;68056;52.530;5.454;2023-03-20T15:25:29;8.15;;;6.20;;
78732;SDS011;68056;52.530;5.454;2023-03-20T15:28:10;5.38;;;4.50;;
78732;SDS011;68056;52.530;5.454;2023-03-20T15:30:41;7.97;;;5.57;;
78732;SDS011;68056;52.530;5.454;2023-03-20T15:33:14;7.97;;;5.50;;
78732;SDS011;68056;52.530;5.454;2023-03-20T15:36:12;9.30;;;6.05;;
78732;SDS011;68056;52.530;5.454;2023-03-20T15:38:41;7.78;;;5.55;;
78732;SDS011;68056;52.530;5.454;2023-03-20T15:41:43;5.25;;;4.57;;
78732;SDS011;68056;52.530;5.454;2023-03-20T15:44:14;6.05;;;4.35;;
78732;SDS011;68056;52.530;5.454;2023-03-20T15:46:50;6.55;;;4.85;;
78732;SDS011;68056;52.530;5.454;2023-03-20T15:49:20;7.53;;;5.43;;
78732;SDS011;68056;52.530;5.454;2023-03-20T15:51:47;7.43;;;5.57;;
78732;SDS011;68056;52.530;5.454;2023-03-20T15:54:14;6.40;;;5.13;;
78732;SDS011;68056;52.530;5.454;2023-03-20T15:56:45;7.95;;;5.53;;
78732;SDS011;68056;52.530;5.454;2023-03-20T15:59:14;6.65;;;4.70;;
78732;SDS011;68056;52.530;5.454;2023-03-20T16:01:45;8.90;;;5.68;;
78732;SDS011;68056;52.530;5.454;2023-03-20T16:04:14;7.40;;;5.40;;
78732;SDS011;68056;52.530;5.454;2023-03-20T16:06:46;11.30;;;6.78;;
78732;SDS011;68056;52.530;5.454;2023-03-20T16:09:15;8.60;;;5.43;;
78732;SDS011;68056;52.530;5.454;2023-03-20T16:11:42;7.80;;;5.85;;
78732;SDS011;68056;52.530;5.454;2023-03-20T16:14:14;7.32;;;5.57;;
78732;SDS011;68056;52.530;5.454;2023-03-20T16:16:46;6.53;;;4.53;;
78732;SDS011;68056;52.530;5.454;2023-03-20T16:19:14;6.93;;;5.13;;
78732;SDS011;68056;52.530;5.454;2023-03-20T16:21:42;8.15;;;5.65;;
78732;SDS011;68056;52.530;5.454;2023-03-20T16:24:18;6.75;;;5.57;;
78732;SDS011;68056;52.530;5.454;2023-03-20T16:26:50;7.78;;;5.30;;
78732;SDS011;68056;52.530;5.454;2023-03-20T16:29:17;6.60;;;4.82;;
78732;SDS011;68056;52.530;5.454;2023-03-20T16:31:55;9.27;;;6.25;;
78732;SDS011;68056;52.530;5.454;2023-03-20T16:34:25;8.50;;;6.47;;
78732;SDS011;68056;52.530;5.454;2023-03-20T16:36:59;7.63;;;5.50;;
78732;SDS011;68056;52.530;5.454;2023-03-20T16:39:29;8.02;;;6.05;;
78732;SDS011;68056;52.530;5.454;2023-03-20T16:42:08;8.88;;;7.22;;
78732;SDS011;68056;52.530;5.454;2023-03-20T16:44:35;10.80;;;6.55;;
78732;SDS011;68056;52.530;5.454;2023-03-20T16:52:11;6.93;;;5.45;;
78732;SDS011;68056;52.530;5.454;2023-03-20T16:54:39;7.18;;;5.50;;
78732;SDS011;68056;52.530;5.454;2023-03-20T16:57:09;8.75;;;6.65;;
78732;SDS011;68056;52.530;5.454;2023-03-20T16:59:39;9.20;;;6.55;;
78732;SDS011;68056;52.530;5.454;2023-03-20T17:02:20;9.50;;;6.53;;
78732;SDS011;68056;52.530;5.454;2023-03-20T17:04:46;6.57;;;5.28;;
78732;SDS011;68056;52.530;5.454;2023-03-20T17:07:14;9.15;;;6.00;;
78732;SDS011;68056;52.530;5.454;2023-03-20T17:15:08;11.52;;;7.53;;
78732;SDS011;68056;52.530;5.454;2023-03-20T17:17:38;9.23;;;7.15;;
78732;SDS011;68056;52.530;5.454;2023-03-20T17:20:04;9.60;;;7.43;;